Terminal Aerodrome Forecast
Issued by NWS

Home | Current Version | Previous Version | Text Only | Print | Product List | Glossary On
Versions: 1 2 3 4 5 6 7 8 9 10 11 12 13 14 15 16 17 18 19 20 21 22 23 24 25 26 27 28 29 30 31
041
FTUS44 KEWX 240539
TAFSSF
TAF
KSSF 240539Z 2406/2506 15014KT P6SM BKN018 BKN250
     FM241400 16012KT P6SM VCSH BKN012 OVC040
     FM241800 21012KT P6SM SCT040 SCT250
     FM242300 19005KT P6SM FEW250=

USA.gov is the U.S. government's official web portal to all federal, state and local government web resources and services.